METAR Formatted Surface Weather Observation
Issued by NWS

Home | Current Version | Previous Version | Text Only | Print | Product List | Glossary On
Versions: 1 2
922
SAUS42 KRAH 091558
MTRNJM
METAR KNJM 091557Z 27008G16KT 210V300 SCT036 BKN055 09/M01 A2971 RMK
AO2 SLP063 T00891006 $



USA.gov is the U.S. government's official web portal to all federal, state and local government web resources and services.